createdAt,value
2019-03-29T00:01:07.643Z,11.35
2019-03-29T00:03:37.886Z,10.77
2019-03-29T00:06:08.060Z,10.77
2019-03-29T00:08:38.464Z,10.61
2019-03-29T00:11:08.974Z,10.56
2019-03-29T00:13:38.999Z,10.62
2019-03-29T00:16:09.729Z,10.64
2019-03-29T00:18:39.902Z,10.33
2019-03-29T00:21:10.039Z,10.23
2019-03-29T00:23:40.571Z,10.07
2019-03-29T00:26:11.081Z,9.98
2019-03-29T00:28:41.603Z,9.66
2019-03-29T00:31:11.828Z,9.93
2019-03-29T00:33:41.912Z,9.93
2019-03-29T00:36:11.973Z,9.81
2019-03-29T00:38:42.705Z,9.68
2019-03-29T00:41:11.971Z,9.50
2019-03-29T00:43:42.449Z,9.51
2019-03-29T00:46:12.917Z,9.74
2019-03-29T00:48:43.306Z,9.89
2019-03-29T00:51:13.956Z,9.93
2019-03-29T00:53:44.583Z,10.21
2019-03-29T00:56:14.990Z,10.33
2019-03-29T00:58:45.569Z,10.33
2019-03-29T01:01:15.956Z,10.53
2019-03-29T01:03:46.386Z,11.00
2019-03-29T01:06:17.037Z,11.06
2019-03-29T01:08:47.298Z,11.28
2019-03-29T01:11:18.236Z,11.36
2019-03-29T01:13:48.870Z,11.22
2019-03-29T01:16:19.566Z,11.17
2019-03-29T01:18:49.931Z,11.08
2019-03-29T01:21:19.971Z,11.08
2019-03-29T01:23:50.822Z,11.20
2019-03-29T01:26:21.327Z,10.97
2019-03-29T01:28:51.993Z,10.95
2019-03-29T01:31:22.110Z,10.49
2019-03-29T01:33:52.714Z,10.78
2019-03-29T01:36:22.011Z,10.65
2019-03-29T01:38:52.552Z,10.68
2019-03-29T01:41:23.030Z,10.06
2019-03-29T01:43:53.312Z,10.06
2019-03-29T01:46:23.726Z,10.02
2019-03-29T01:48:52.851Z,10.05
2019-03-29T01:51:23.081Z,10.45
2019-03-29T01:53:53.639Z,10.33
2019-03-29T01:56:23.840Z,10.35
2019-03-29T01:58:53.975Z,10.35
2019-03-29T02:01:24.566Z,10.38
2019-03-29T02:03:54.887Z,10.72
2019-03-29T02:06:25.628Z,10.72
2019-03-29T02:08:55.880Z,10.54
2019-03-29T02:11:26.114Z,10.54
2019-03-29T02:13:56.578Z,10.47
2019-03-29T02:16:26.889Z,10.15
2019-03-29T02:18:57.013Z,10.15
2019-03-29T02:21:28.780Z,10.15
2019-03-29T02:23:57.984Z,10.43
2019-03-29T02:26:28.519Z,10.23
2019-03-29T02:28:58.991Z,10.08
2019-03-29T02:31:29.290Z,10.08
2019-03-29T02:33:59.777Z,10.10
2019-03-29T02:36:31.012Z,10.00
2019-03-29T02:39:02.866Z,10.00
2019-03-29T02:41:34.078Z,9.60
2019-03-29T02:44:04.653Z,9.72
2019-03-29T02:46:34.990Z,9.45
2019-03-29T02:49:06.085Z,9.45
2019-03-29T02:51:36.585Z,9.37
2019-03-29T02:54:07.201Z,9.46
2019-03-29T02:56:37.416Z,9.46
2019-03-29T02:59:07.939Z,9.68
2019-03-29T03:01:38.309Z,9.13
2019-03-29T03:04:09.113Z,8.92
2019-03-29T03:06:39.694Z,9.09
2019-03-29T03:09:13.616Z,9.03
2019-03-29T03:11:43.375Z,9.20
2019-03-29T03:14:13.869Z,9.41
2019-03-29T03:16:44.100Z,9.41
2019-03-29T03:19:14.512Z,9.21
2019-03-29T03:21:44.820Z,9.08
2019-03-29T03:24:14.906Z,9.04
2019-03-29T03:26:46.103Z,8.74
2019-03-29T03:29:16.920Z,8.72
2019-03-29T03:31:47.082Z,8.72
2019-03-29T03:34:17.718Z,8.67
2019-03-29T03:36:46.899Z,8.83
2019-03-29T03:39:30.550Z,8.91
2019-03-29T03:41:49.742Z,8.74
2019-03-29T03:44:19.049Z,8.86
2019-03-29T03:46:49.883Z,8.49
2019-03-29T03:49:20.039Z,8.42
2019-03-29T03:51:50.874Z,8.16
2019-03-29T03:54:22.032Z,8.14
2019-03-29T03:56:53.929Z,8.10
2019-03-29T03:59:26.206Z,8.22
2019-03-29T04:01:56.577Z,8.35
2019-03-29T04:04:26.945Z,8.35
2019-03-29T04:06:57.017Z,8.35
2019-03-29T04:09:27.305Z,8.27
2019-03-29T04:11:57.572Z,8.36
2019-03-29T04:14:27.967Z,8.24
2019-03-29T04:16:58.108Z,8.09
2019-03-29T04:19:28.819Z,7.98
2019-03-29T04:21:58.919Z,8.01
2019-03-29T04:24:29.075Z,7.76
2019-03-29T04:26:59.515Z,7.53
2019-03-29T04:29:29.979Z,7.58
2019-03-29T04:32:00.088Z,7.59
2019-03-29T04:34:30.534Z,7.60
2019-03-29T04:37:00.941Z,7.44
2019-03-29T04:39:32.116Z,7.32
2019-03-29T04:42:02.916Z,7.14
2019-03-29T04:44:32.979Z,7.21
2019-03-29T04:47:03.112Z,7.13
2019-03-29T04:49:33.891Z,7.08
2019-03-29T04:52:04.386Z,7.12
2019-03-29T04:54:34.865Z,7.19
2019-03-29T04:57:05.636Z,7.42
2019-03-29T04:59:35.027Z,7.44
2019-03-29T05:02:05.603Z,7.19
2019-03-29T05:04:35.999Z,7.34
2019-03-29T05:07:06.716Z,7.34
2019-03-29T05:09:37.030Z,7.23
2019-03-29T05:12:07.795Z,7.63
2019-03-29T05:14:37.918Z,7.84
2019-03-29T05:17:08.441Z,7.89
2019-03-29T05:19:38.869Z,8.39
2019-03-29T05:22:09.545Z,8.07
2019-03-29T05:24:40.040Z,7.85
2019-03-29T05:27:10.573Z,7.85
2019-03-29T05:29:43.488Z,7.86
2019-03-29T05:32:13.999Z,8.12
2019-03-29T05:34:44.516Z,8.12
2019-03-29T05:37:14.953Z,8.10
2019-03-29T05:39:44.992Z,8.00
2019-03-29T05:42:15.461Z,8.25
2019-03-29T05:44:50.951Z,8.47
2019-03-29T05:47:21.160Z,8.90
2019-03-29T05:49:51.697Z,9.64
2019-03-29T05:52:22.055Z,10.77
2019-03-29T05:54:52.911Z,11.41
2019-03-29T05:57:23.478Z,12.66
2019-03-29T06:00:00.705Z,14.24
2019-03-29T06:02:29.790Z,15.43
2019-03-29T06:05:00.502Z,15.72
2019-03-29T06:07:30.976Z,17.84
2019-03-29T06:10:01.577Z,17.84
2019-03-29T06:12:39.683Z,19.00
2019-03-29T06:15:08.919Z,18.10
2019-03-29T06:17:48.406Z,18.10
2019-03-29T06:20:12.130Z,17.91
2019-03-29T06:22:58.933Z,19.15
2019-03-29T06:25:34.600Z,20.18
2019-03-29T06:28:05.046Z,19.16
2019-03-29T06:30:35.973Z,19.16
2019-03-29T06:33:06.065Z,19.50
2019-03-29T06:35:41.212Z,18.42
2019-03-29T06:38:12.596Z,20.35
2019-03-29T06:40:43.474Z,21.22
2019-03-29T06:43:15.051Z,19.67
2019-03-29T06:45:48.048Z,19.67
2019-03-29T06:48:19.007Z,21.36
2019-03-29T06:50:50.214Z,19.02
2019-03-29T06:53:24.307Z,18.91
2019-03-29T06:55:59.367Z,20.59
2019-03-29T06:58:31.051Z,22.36
2019-03-29T07:01:01.907Z,22.24
2019-03-29T07:03:32.944Z,20.60
2019-03-29T07:06:04.305Z,21.09
2019-03-29T07:08:35.790Z,20.61
2019-03-29T07:11:16.646Z,21.24
2019-03-29T07:13:38.709Z,20.53
2019-03-29T07:16:09.254Z,20.48
2019-03-29T07:18:39.902Z,20.71
2019-03-29T07:21:20.839Z,21.80
2019-03-29T07:23:41.778Z,20.65
2019-03-29T07:26:12.297Z,20.65
2019-03-29T07:28:42.701Z,21.38
2019-03-29T07:31:12.082Z,22.88
2019-03-29T07:33:43.009Z,23.60
2019-03-29T07:36:13.793Z,20.78
2019-03-29T07:38:44.293Z,21.25
2019-03-29T07:41:14.939Z,20.74
2019-03-29T07:43:45.710Z,20.99
2019-03-29T07:46:16.156Z,21.26
2019-03-29T07:48:46.558Z,22.80
2019-03-29T07:51:16.917Z,24.69
2019-03-29T07:53:47.104Z,26.31
2019-03-29T07:56:17.835Z,24.97
2019-03-29T07:58:47.987Z,24.64
2019-03-29T08:01:18.528Z,24.14
2019-03-29T08:03:51.346Z,22.97
2019-03-29T08:06:21.815Z,24.27
2019-03-29T08:08:52.101Z,27.22
2019-03-29T08:11:26.305Z,28.76
2019-03-29T08:13:56.757Z,29.08
2019-03-29T08:16:26.897Z,27.76
2019-03-29T08:18:57.838Z,26.98
2019-03-29T08:21:27.961Z,24.66
2019-03-29T08:23:59.307Z,25.56
2019-03-29T08:26:29.998Z,27.09
2019-03-29T08:29:01.126Z,25.41
2019-03-29T08:31:31.729Z,27.22
2019-03-29T08:34:03.677Z,28.73
2019-03-29T08:36:33.584Z,29.17
2019-03-29T08:39:04.384Z,29.55
2019-03-29T08:41:35.584Z,28.07
2019-03-29T08:44:06.625Z,28.37
2019-03-29T08:46:37.058Z,28.37
2019-03-29T08:49:07.832Z,29.71
2019-03-29T08:51:41.226Z,30.23
2019-03-29T08:54:10.049Z,29.86
2019-03-29T08:56:40.705Z,29.18
2019-03-29T08:59:09.898Z,28.19
2019-03-29T09:01:40.449Z,29.64
2019-03-29T09:04:11.286Z,30.57
2019-03-29T09:06:52.482Z,30.59
2019-03-29T09:09:14.768Z,31.38
2019-03-29T09:11:45.333Z,31.99
2019-03-29T09:14:15.956Z,32.25
2019-03-29T09:16:47.210Z,32.33
2019-03-29T09:19:20.727Z,29.88
2019-03-29T09:21:51.049Z,30.16
2019-03-29T09:24:22.605Z,31.84
2019-03-29T09:26:53.065Z,32.68
2019-03-29T09:29:23.660Z,33.54
2019-03-29T09:31:52.911Z,34.13
2019-03-29T09:34:23.125Z,34.13
2019-03-29T09:36:53.988Z,30.07
2019-03-29T09:39:24.777Z,31.23
2019-03-29T09:41:55.575Z,33.21
2019-03-29T09:44:27.047Z,34.99
2019-03-29T09:46:57.882Z,31.72
2019-03-29T09:49:29.699Z,31.04
2019-03-29T09:51:58.861Z,31.83
2019-03-29T09:54:29.389Z,31.83
2019-03-29T09:56:59.751Z,33.41
2019-03-29T09:59:28.847Z,33.85
2019-03-29T10:01:59.066Z,32.13
2019-03-29T10:04:31.546Z,31.43
2019-03-29T10:07:01.890Z,30.52
2019-03-29T10:09:32.728Z,29.54
2019-03-29T10:12:03.640Z,28.05
2019-03-29T10:14:34.318Z,29.12
2019-03-29T10:17:05.598Z,28.32
2019-03-29T10:19:37.027Z,25.64
2019-03-29T10:22:08.731Z,25.64
2019-03-29T10:24:39.766Z,26.09
2019-03-29T10:27:10.603Z,28.07
2019-03-29T10:29:41.080Z,30.26
2019-03-29T10:32:11.879Z,30.26
2019-03-29T10:34:42.315Z,28.59
2019-03-29T10:37:13.485Z,30.46
2019-03-29T10:39:44.003Z,29.32
2019-03-29T10:42:14.613Z,29.32
2019-03-29T10:44:53.606Z,27.67
2019-03-29T10:47:42.539Z,26.59
2019-03-29T10:50:00.863Z,26.59
2019-03-29T10:52:30.949Z,27.91
2019-03-29T10:55:02.071Z,27.71
2019-03-29T10:57:33.294Z,28.04
2019-03-29T11:00:06.059Z,27.59
2019-03-29T11:02:38.314Z,27.88
2019-03-29T11:05:09.861Z,27.34
2019-03-29T11:07:41.100Z,27.25
2019-03-29T11:10:29.647Z,27.80
2019-03-29T11:13:12.453Z,26.30
2019-03-29T11:15:38.245Z,24.38
2019-03-29T11:18:09.129Z,26.45
2019-03-29T11:20:40.296Z,26.83
2019-03-29T11:23:12.926Z,24.96
2019-03-29T11:25:43.292Z,24.20
2019-03-29T11:28:14.071Z,24.31
2019-03-29T11:30:44.984Z,25.69
2019-03-29T11:33:15.155Z,26.06
2019-03-29T11:35:45.540Z,25.16
2019-03-29T11:38:15.919Z,25.56
2019-03-29T11:40:45.998Z,25.56
2019-03-29T11:43:26.528Z,26.52
2019-03-29T11:45:49.753Z,26.11
2019-03-29T11:48:20.295Z,26.06
2019-03-29T11:50:51.057Z,25.13
2019-03-29T11:53:23.431Z,26.58
2019-03-29T11:55:54.295Z,28.15
2019-03-29T11:58:25.587Z,29.84
2019-03-29T12:00:56.510Z,27.74
2019-03-29T12:03:27.292Z,27.74
2019-03-29T12:05:58.048Z,26.63
2019-03-29T12:08:28.750Z,26.66
2019-03-29T12:10:58.905Z,24.35
2019-03-29T12:13:40.353Z,24.35
2019-03-29T12:16:02.773Z,26.18
2019-03-29T12:18:34.467Z,27.70
2019-03-29T12:21:04.995Z,26.12
2019-03-29T12:23:36.003Z,28.87
2019-03-29T12:26:07.013Z,30.04
2019-03-29T12:28:37.793Z,26.36
2019-03-29T12:31:07.771Z,25.68
2019-03-29T12:33:38.173Z,25.00
2019-03-29T12:36:08.609Z,25.82
2019-03-29T12:38:39.007Z,27.68
2019-03-29T12:41:09.579Z,27.68
2019-03-29T12:43:39.961Z,27.28
2019-03-29T12:46:11.105Z,27.28
2019-03-29T12:48:42.136Z,28.59
2019-03-29T12:51:13.077Z,24.70
2019-03-29T12:53:44.101Z,24.33
2019-03-29T12:56:14.754Z,26.49
2019-03-29T12:58:43.872Z,28.06
2019-03-29T13:01:14.945Z,29.72
2019-03-29T13:03:46.563Z,27.29
2019-03-29T13:06:16.975Z,25.49
2019-03-29T13:08:47.072Z,26.55
2019-03-29T13:11:17.566Z,27.88
2019-03-29T13:13:48.448Z,27.00
2019-03-29T13:16:18.747Z,26.35
2019-03-29T13:18:47.987Z,25.66
2019-03-29T13:21:18.110Z,25.09
2019-03-29T13:23:48.612Z,25.79
2019-03-29T13:26:18.383Z,23.79
2019-03-29T13:28:48.883Z,23.03
2019-03-29T13:31:20.076Z,22.50
2019-03-29T13:33:50.918Z,22.17
2019-03-29T13:36:21.753Z,22.15
2019-03-29T13:38:51.944Z,21.90
2019-03-29T13:41:23.148Z,22.48
2019-03-29T13:43:53.762Z,22.49
2019-03-29T13:46:23.975Z,22.75
2019-03-29T13:48:54.328Z,23.38
2019-03-29T13:51:25.325Z,22.77
2019-03-29T13:53:56.124Z,23.01
2019-03-29T13:56:26.854Z,23.64
2019-03-29T13:58:57.858Z,24.17
2019-03-29T14:01:28.294Z,24.09
2019-03-29T14:04:02.806Z,23.80
2019-03-29T14:06:33.615Z,23.85
2019-03-29T14:09:04.403Z,23.16
2019-03-29T14:11:34.886Z,22.48
2019-03-29T14:14:05.280Z,22.59
2019-03-29T14:16:35.839Z,22.73
2019-03-29T14:19:06.198Z,22.60
2019-03-29T14:21:37.719Z,21.22
2019-03-29T14:24:06.829Z,20.50
2019-03-29T14:26:37.487Z,20.75
2019-03-29T14:29:07.918Z,20.87
2019-03-29T14:31:38.165Z,20.45
2019-03-29T14:34:08.626Z,19.37
2019-03-29T14:36:39.221Z,19.88
2019-03-29T14:39:09.958Z,19.88
2019-03-29T14:41:40.488Z,20.00
2019-03-29T14:44:11.003Z,19.69
2019-03-29T14:46:41.791Z,19.57
2019-03-29T14:49:12.322Z,19.24
2019-03-29T14:51:42.967Z,18.72
2019-03-29T14:54:13.830Z,18.94
2019-03-29T14:56:44.160Z,19.63
2019-03-29T14:59:15.725Z,20.26
2019-03-29T15:01:45.053Z,20.12
2019-03-29T15:04:15.580Z,20.51
2019-03-29T15:06:46.507Z,19.92
2019-03-29T15:09:17.299Z,19.92
2019-03-29T15:11:48.306Z,19.44
2019-03-29T15:14:19.424Z,19.38
2019-03-29T15:16:49.980Z,19.28
2019-03-29T15:19:20.618Z,19.15
2019-03-29T15:21:50.941Z,19.00
2019-03-29T15:24:22.482Z,19.00
2019-03-29T15:26:52.920Z,19.75
2019-03-29T15:29:22.985Z,19.87
2019-03-29T15:31:53.390Z,19.62
2019-03-29T15:34:23.728Z,20.02
2019-03-29T15:36:52.951Z,19.67
2019-03-29T15:39:23.293Z,19.68
2019-03-29T15:41:53.782Z,19.07
2019-03-29T15:44:22.931Z,19.36
2019-03-29T15:46:54.579Z,19.18
2019-03-29T15:49:24.966Z,18.93
2019-03-29T15:51:55.149Z,18.93
2019-03-29T15:54:25.588Z,18.88
2019-03-29T15:56:55.901Z,18.29
2019-03-29T15:59:26.289Z,18.29
2019-03-29T16:01:56.726Z,18.67
2019-03-29T16:04:25.944Z,19.05
2019-03-29T16:06:57.130Z,19.02
2019-03-29T16:09:27.636Z,18.70
2019-03-29T16:11:57.934Z,18.36
2019-03-29T16:14:28.140Z,18.36
2019-03-29T16:16:58.893Z,18.57
2019-03-29T16:19:30.561Z,18.76
2019-03-29T16:22:01.175Z,18.61
2019-03-29T16:24:31.603Z,18.61
2019-03-29T16:27:01.878Z,18.58
2019-03-29T16:29:32.062Z,18.58
2019-03-29T16:32:02.592Z,18.39
2019-03-29T16:34:32.920Z,18.76
2019-03-29T16:37:03.114Z,18.76
2019-03-29T16:39:33.722Z,18.46
2019-03-29T16:42:03.934Z,18.12
2019-03-29T16:44:34.421Z,17.71
2019-03-29T16:47:04.863Z,18.26
2019-03-29T16:49:35.024Z,18.11
2019-03-29T16:52:05.540Z,18.05
2019-03-29T16:54:35.876Z,17.99
2019-03-29T16:57:06.074Z,17.80
2019-03-29T16:59:36.921Z,17.94
2019-03-29T17:02:07.430Z,17.81
2019-03-29T17:04:38.015Z,17.89
2019-03-29T17:07:08.599Z,17.92
2019-03-29T17:09:37.845Z,18.10
2019-03-29T17:12:08.309Z,18.10
2019-03-29T17:14:38.835Z,17.91
2019-03-29T17:17:08.988Z,17.77
2019-03-29T17:19:39.135Z,17.48
2019-03-29T17:22:09.666Z,17.56
2019-03-29T17:24:40.328Z,17.51
2019-03-29T17:27:10.008Z,17.30
2019-03-29T17:29:40.618Z,17.46
2019-03-29T17:32:11.008Z,17.09
2019-03-29T17:34:41.645Z,17.09
2019-03-29T17:37:10.893Z,17.34
2019-03-29T17:39:41.299Z,17.04
2019-03-29T17:42:11.736Z,16.80
2019-03-29T17:44:42.071Z,16.58
2019-03-29T17:47:12.618Z,16.41
2019-03-29T17:49:42.921Z,16.23
2019-03-29T17:52:12.981Z,16.23
2019-03-29T17:54:43.291Z,16.09
2019-03-29T17:57:13.980Z,16.00
2019-03-29T17:59:44.913Z,16.00
2019-03-29T18:02:15.038Z,16.11
2019-03-29T18:04:45.611Z,15.83
2019-03-29T18:07:15.015Z,15.82
2019-03-29T18:09:45.950Z,15.74
2019-03-29T18:12:16.650Z,15.51
2019-03-29T18:14:45.973Z,15.40
2019-03-29T18:17:16.427Z,15.47
2019-03-29T18:19:46.955Z,15.43
2019-03-29T18:22:17.107Z,15.28
2019-03-29T18:24:47.813Z,15.29
2019-03-29T18:27:34.677Z,15.23
2019-03-29T18:30:28.872Z,15.29
2019-03-29T18:33:22.679Z,15.12
2019-03-29T18:35:57.288Z,15.16
2019-03-29T18:38:28.892Z,15.01
2019-03-29T18:40:58.825Z,14.79
2019-03-29T18:43:29.042Z,14.74
2019-03-29T18:45:59.699Z,14.56
2019-03-29T18:48:28.866Z,14.38
2019-03-29T18:50:58.983Z,14.38
2019-03-29T18:53:29.769Z,14.21
2019-03-29T18:55:58.940Z,13.99
2019-03-29T18:58:29.579Z,14.08
2019-03-29T19:00:59.951Z,13.94
2019-03-29T19:03:30.630Z,13.94
2019-03-29T19:06:00.936Z,13.61
2019-03-29T19:08:31.132Z,13.61
2019-03-29T19:11:02.070Z,13.41
2019-03-29T19:13:32.797Z,13.28
2019-03-29T19:16:03.035Z,13.08
2019-03-29T19:18:33.827Z,12.91
2019-03-29T19:21:04.289Z,12.74
2019-03-29T19:23:35.001Z,12.95
2019-03-29T19:26:05.575Z,12.79
2019-03-29T19:28:35.970Z,12.31
2019-03-29T19:31:06.242Z,12.31
2019-03-29T19:33:37.784Z,12.13
2019-03-29T19:36:08.113Z,11.80
2019-03-29T19:38:38.816Z,11.90
2019-03-29T19:41:09.128Z,11.92
2019-03-29T19:43:40.311Z,11.87
2019-03-29T19:46:11.183Z,11.81
2019-03-29T19:48:41.985Z,11.79
2019-03-29T19:51:12.765Z,11.65
2019-03-29T19:53:41.963Z,11.64
2019-03-29T19:56:12.446Z,11.60
2019-03-29T19:58:43.043Z,11.33
2019-03-29T20:01:14.009Z,11.22
2019-03-29T20:03:44.849Z,11.22
2019-03-29T20:06:15.122Z,11.16
2019-03-29T20:08:53.537Z,11.10
2019-03-29T20:11:24.307Z,10.76
2019-03-29T20:13:54.926Z,10.76
2019-03-29T20:16:25.459Z,10.85
2019-03-29T20:18:56.166Z,10.88
2019-03-29T20:21:27.035Z,10.91
2019-03-29T20:24:00.191Z,10.83
2019-03-29T20:26:29.929Z,10.71
2019-03-29T20:29:00.785Z,10.67
2019-03-29T20:31:31.087Z,10.50
2019-03-29T20:34:02.156Z,10.33
2019-03-29T20:36:35.327Z,10.14
2019-03-29T20:39:09.328Z,10.23
2019-03-29T20:41:47.947Z,10.32
2019-03-29T20:44:18.159Z,10.37
2019-03-29T20:46:48.563Z,10.36
2019-03-29T20:49:19.000Z,10.26
2019-03-29T20:51:49.735Z,10.19
2019-03-29T20:54:19.417Z,9.91
2019-03-29T20:56:49.959Z,9.76
2019-03-29T20:59:20.714Z,9.69
2019-03-29T21:01:52.894Z,9.74
2019-03-29T21:04:23.606Z,9.90
2019-03-29T21:06:53.050Z,9.68
2019-03-29T21:09:23.572Z,9.69
2019-03-29T21:11:54.071Z,9.59
2019-03-29T21:14:24.762Z,9.55
2019-03-29T21:16:54.041Z,9.58
2019-03-29T21:19:25.032Z,9.47
2019-03-29T21:21:55.612Z,9.37
2019-03-29T21:24:24.993Z,9.33
2019-03-29T21:26:55.717Z,9.43
2019-03-29T21:29:26.333Z,9.54
2019-03-29T21:31:56.879Z,9.50
2019-03-29T21:34:27.612Z,9.36
2019-03-29T21:36:56.896Z,9.14
2019-03-29T21:39:27.302Z,9.13
2019-03-29T21:41:57.716Z,9.06
2019-03-29T21:44:27.920Z,8.98
2019-03-29T21:46:58.474Z,9.07
2019-03-29T21:49:28.976Z,9.02
2019-03-29T21:51:59.237Z,9.19
2019-03-29T21:54:29.965Z,9.12
2019-03-29T21:57:00.938Z,9.05
2019-03-29T21:59:31.118Z,9.04
2019-03-29T22:02:01.612Z,8.95
2019-03-29T22:04:30.921Z,8.86
2019-03-29T22:07:02.010Z,8.73
2019-03-29T22:09:37.075Z,8.52
2019-03-29T22:12:04.835Z,8.09
2019-03-29T22:14:36.323Z,7.89
2019-03-29T22:17:06.988Z,7.83
2019-03-29T22:19:37.049Z,8.08
2019-03-29T22:22:07.580Z,8.06
2019-03-29T22:24:38.175Z,8.28
2019-03-29T22:27:08.619Z,8.28
2019-03-29T22:29:39.040Z,8.33
2019-03-29T22:32:09.563Z,8.33
2019-03-29T22:34:38.848Z,8.28
2019-03-29T22:37:09.065Z,8.28
2019-03-29T22:39:39.524Z,8.43
2019-03-29T22:42:09.291Z,8.09
2019-03-29T22:44:39.558Z,8.09
2019-03-29T22:47:09.959Z,8.17
2019-03-29T22:49:40.588Z,8.15
2019-03-29T22:52:10.993Z,7.99
2019-03-29T22:54:42.059Z,7.87
2019-03-29T22:57:12.631Z,7.92
2019-03-29T23:00:39.688Z,7.85
2019-03-29T23:03:12.157Z,7.60
2019-03-29T23:05:42.793Z,7.55
2019-03-29T23:08:11.969Z,7.65
2019-03-29T23:10:42.116Z,7.66
2019-03-29T23:13:12.675Z,7.52
2019-03-29T23:15:42.928Z,7.55
2019-03-29T23:18:14.042Z,7.55
2019-03-29T23:20:44.314Z,7.62
2019-03-29T23:23:15.006Z,7.56
2019-03-29T23:25:47.170Z,7.55
2019-03-29T23:28:17.854Z,7.48
2019-03-29T23:30:48.642Z,7.41
2019-03-29T23:33:18.951Z,7.33
2019-03-29T23:35:49.888Z,7.33
2019-03-29T23:38:20.623Z,7.26
2019-03-29T23:40:52.700Z,7.24
2019-03-29T23:43:22.632Z,7.18
2019-03-29T23:45:52.872Z,7.01
2019-03-29T23:48:23.574Z,6.86
2019-03-29T23:50:54.391Z,6.48
2019-03-29T23:53:25.290Z,6.52
2019-03-29T23:55:56.625Z,6.52
2019-03-29T23:58:26.275Z,6.77
